createdAt,value
2018-12-02T00:01:21.390Z,50.89
2018-12-02T00:02:11.179Z,51.09
2018-12-02T00:04:04.090Z,52.44
2018-12-02T00:05:04.103Z,52.06
2018-12-02T00:07:02.351Z,51.76
2018-12-02T00:07:57.030Z,50.31
2018-12-02T00:09:49.947Z,50.70
2018-12-02T00:10:49.958Z,50.89
2018-12-02T00:12:43.127Z,52.15
2018-12-02T00:13:42.883Z,53.41
2018-12-02T00:15:35.797Z,54.28
2018-12-02T00:16:35.811Z,53.31
2018-12-02T00:18:28.899Z,53.80
2018-12-02T00:19:28.754Z,53.70
2018-12-02T00:21:21.648Z,56.13
2018-12-02T00:22:21.662Z,58.84
2018-12-02T00:24:14.740Z,53.99
2018-12-02T00:25:14.588Z,54.77
2018-12-02T00:27:07.497Z,55.47
2018-12-02T00:28:07.519Z,57.12
2018-12-02T00:30:00.582Z,56.45
2018-12-02T00:31:00.449Z,56.54
2018-12-02T00:32:53.368Z,57.80
2018-12-02T00:33:53.374Z,56.74
2018-12-02T00:35:46.560Z,59.06
2018-12-02T00:36:46.299Z,56.93
2018-12-02T00:38:39.208Z,57.42
2018-12-02T00:39:39.224Z,58.29
2018-12-02T00:41:32.314Z,55.87
2018-12-02T00:42:32.155Z,57.03
2018-12-02T00:44:25.065Z,58.67
2018-12-02T00:45:25.079Z,58.77
2018-12-02T00:47:21.135Z,60.61
2018-12-02T00:48:18.008Z,58.77
2018-12-02T00:50:10.928Z,58.00
2018-12-02T00:51:10.936Z,58.87
2018-12-02T00:53:03.929Z,57.70
2018-12-02T00:54:03.860Z,57.90
2018-12-02T00:55:56.782Z,59.36
2018-12-02T00:56:56.786Z,58.97
2018-12-02T00:58:49.957Z,57.61
2018-12-02T00:59:49.722Z,58.39
2018-12-02T01:01:42.634Z,59.67
2018-12-02T01:02:42.641Z,61.42
2018-12-02T01:04:35.628Z,61.49
2018-12-02T01:05:35.565Z,60.25
2018-12-02T01:07:28.483Z,58.48
2018-12-02T01:08:28.493Z,57.32
2018-12-02T01:10:21.488Z,58.29
2018-12-02T01:11:21.428Z,59.84
2018-12-02T01:13:14.342Z,58.48
2018-12-02T01:14:14.355Z,58.22
2018-12-02T01:16:08.370Z,58.61
2018-12-02T01:17:07.305Z,59.48
2018-12-02T01:19:00.199Z,60.55
2018-12-02T01:20:00.214Z,63.07
2018-12-02T01:21:53.213Z,63.07
2018-12-02T01:22:53.142Z,64.53
2018-12-02T01:24:46.060Z,66.95
2018-12-02T01:25:46.073Z,66.17
2018-12-02T01:27:39.160Z,65.63
2018-12-02T01:28:39.002Z,69.12
2018-12-02T01:30:31.913Z,67.54
2018-12-02T01:31:31.964Z,64.95
2018-12-02T01:33:25.001Z,68.15
2018-12-02T01:34:24.851Z,67.96
2018-12-02T01:36:17.767Z,67.37
2018-12-02T01:37:17.779Z,67.57
2018-12-02T01:39:10.868Z,69.12
2018-12-02T01:40:10.707Z,68.25
2018-12-02T01:42:03.622Z,74.65
2018-12-02T01:43:03.635Z,72.42
2018-12-02T01:44:56.840Z,72.61
2018-12-02T01:45:56.585Z,72.91
2018-12-02T01:47:49.563Z,75.04
2018-12-02T01:48:49.506Z,73.49
2018-12-02T01:50:42.696Z,73.88
2018-12-02T01:51:42.443Z,73.49
2018-12-02T01:53:35.353Z,72.42
2018-12-02T01:54:35.366Z,71.36
2018-12-02T01:56:28.539Z,71.45
2018-12-02T01:57:28.294Z,71.48
2018-12-02T01:59:21.211Z,73.04
2018-12-02T02:00:21.227Z,78.67
2018-12-02T02:02:14.315Z,77.70
2018-12-02T02:03:14.154Z,82.11
2018-12-02T02:05:07.090Z,80.04
2018-12-02T02:06:07.086Z,78.28
2018-12-02T02:08:00.152Z,78.77
2018-12-02T02:09:00.017Z,79.74
2018-12-02T02:10:52.926Z,81.04
2018-12-02T02:11:52.940Z,84.16
2018-12-02T02:13:46.109Z,81.73
2018-12-02T02:14:45.868Z,81.34
2018-12-02T02:16:39.332Z,80.66
2018-12-02T02:17:38.799Z,82.79
2018-12-02T02:19:31.975Z,83.09
2018-12-02T02:20:31.726Z,82.70
2018-12-02T02:22:24.648Z,81.73
2018-12-02T02:23:24.653Z,81.73
2018-12-02T02:25:17.747Z,84.06
2018-12-02T02:26:17.590Z,83.47
2018-12-02T02:28:10.511Z,83.86
2018-12-02T02:29:10.521Z,84.83
2018-12-02T02:31:03.691Z,85.71
2018-12-02T02:32:03.448Z,85.75
2018-12-02T02:33:56.364Z,88.04
2018-12-02T02:34:56.382Z,87.55
2018-12-02T02:36:49.369Z,85.52
2018-12-02T02:37:49.303Z,87.75
2018-12-02T02:39:42.849Z,86.72
2018-12-02T02:40:42.236Z,87.21
2018-12-02T02:42:35.317Z,86.72
2018-12-02T02:43:35.179Z,85.94
2018-12-02T02:45:28.104Z,87.60
2018-12-02T02:46:28.110Z,87.70
2018-12-02T02:48:21.094Z,89.25
2018-12-02T02:49:21.030Z,86.82
2018-12-02T02:51:13.945Z,87.70
2018-12-02T02:52:13.964Z,87.89
2018-12-02T02:54:07.137Z,87.50
2018-12-02T02:55:06.901Z,88.28
2018-12-02T02:56:59.810Z,89.25
2018-12-02T02:57:59.827Z,90.56
2018-12-02T02:59:53.004Z,91.53
2018-12-02T03:00:52.755Z,91.53
2018-12-02T03:02:45.683Z,91.24
2018-12-02T03:03:45.686Z,91.44
2018-12-02T03:05:38.877Z,91.88
2018-12-02T03:06:38.611Z,91.34
2018-12-02T03:08:31.536Z,93.29
2018-12-02T03:09:31.543Z,93.87
2018-12-02T03:11:24.634Z,93.19
2018-12-02T03:12:24.471Z,92.60
2018-12-02T03:14:17.402Z,94.45
2018-12-02T03:15:17.410Z,93.77
2018-12-02T03:17:10.414Z,94.74
2018-12-02T03:18:10.339Z,97.08
2018-12-02T03:20:03.322Z,96.01
2018-12-02T03:21:03.273Z,96.88
2018-12-02T03:23:14.506Z,96.11
2018-12-02T03:23:56.202Z,96.30
2018-12-02T03:25:49.118Z,95.81
2018-12-02T03:26:49.127Z,94.84
2018-12-02T03:28:42.335Z,96.20
2018-12-02T03:29:42.057Z,96.64
2018-12-02T03:31:34.987Z,97.90
2018-12-02T03:32:34.988Z,97.71
2018-12-02T03:34:28.161Z,97.90
2018-12-02T03:35:27.956Z,98.49
2018-12-02T03:37:20.843Z,98.97
2018-12-02T03:38:20.851Z,98.19
2018-12-02T03:40:14.037Z,99.99
2018-12-02T03:41:13.797Z,98.88
2018-12-02T03:43:06.697Z,98.39
2018-12-02T03:44:06.711Z,98.44
2018-12-02T03:45:59.891Z,99.99
2018-12-02T03:46:59.644Z,98.39
2018-12-02T03:48:52.581Z,98.88
2018-12-02T03:49:52.597Z,99.51
2018-12-02T03:51:45.651Z,99.99
2018-12-02T03:52:45.528Z,99.99
2018-12-02T03:54:38.439Z,99.66
2018-12-02T03:55:38.456Z,99.99
2018-12-02T03:57:57.586Z,99.99
2018-12-02T03:58:31.387Z,99.99
2018-12-02T04:00:24.309Z,99.99
2018-12-02T04:01:24.321Z,99.99
2018-12-02T04:03:17.404Z,99.99
2018-12-02T04:04:17.251Z,99.99
2018-12-02T04:06:10.172Z,99.99
2018-12-02T04:07:10.186Z,99.99
2018-12-02T04:09:03.365Z,99.99
2018-12-02T04:10:03.116Z,99.99
2018-12-02T04:11:56.036Z,99.99
2018-12-02T04:12:56.053Z,99.99
2018-12-02T04:14:50.015Z,99.99
2018-12-02T04:15:48.996Z,99.99
2018-12-02T04:17:42.098Z,99.99
2018-12-02T04:18:42.110Z,99.99
2018-12-02T04:20:35.198Z,99.99
2018-12-02T04:21:35.040Z,99.99
2018-12-02T04:23:27.959Z,99.99
2018-12-02T04:24:27.969Z,99.99
2018-12-02T04:26:21.065Z,99.99
2018-12-02T04:27:20.903Z,99.99
2018-12-02T04:29:13.815Z,99.99
2018-12-02T04:30:13.834Z,99.99
2018-12-02T04:32:07.014Z,99.99
2018-12-02T04:33:06.762Z,99.99
2018-12-02T04:34:59.678Z,99.99
2018-12-02T04:35:59.693Z,99.99
2018-12-02T04:38:07.452Z,99.99
2018-12-02T04:38:52.623Z,99.99
2018-12-02T04:40:46.090Z,99.99
2018-12-02T04:41:45.562Z,99.99
2018-12-02T04:43:38.563Z,99.99
2018-12-02T04:44:38.499Z,99.99
2018-12-02T04:46:31.985Z,99.99
2018-12-02T04:47:31.429Z,99.99
2018-12-02T04:49:24.498Z,99.99
2018-12-02T04:50:24.361Z,99.99
2018-12-02T04:52:17.281Z,99.99
2018-12-02T04:53:17.297Z,99.99
2018-12-02T04:55:10.474Z,99.99
2018-12-02T04:56:10.248Z,99.99
2018-12-02T04:58:03.728Z,99.99
2018-12-02T04:59:03.175Z,99.99
2018-12-02T05:00:56.179Z,99.99
2018-12-02T05:01:56.120Z,99.99
2018-12-02T05:03:49.023Z,99.99
2018-12-02T05:04:49.039Z,99.99
2018-12-02T05:06:42.114Z,99.99
2018-12-02T05:07:41.973Z,99.99
2018-12-02T05:09:34.894Z,99.99
2018-12-02T05:10:34.912Z,99.99
2018-12-02T05:12:28.086Z,99.99
2018-12-02T05:13:27.839Z,99.99
2018-12-02T05:15:20.757Z,99.99
2018-12-02T05:16:20.772Z,99.99
2018-12-02T05:18:13.768Z,99.99
2018-12-02T05:19:13.699Z,99.99
2018-12-02T05:21:06.619Z,99.99
2018-12-02T05:22:06.631Z,99.99
2018-12-02T05:23:59.803Z,99.99
2018-12-02T05:24:59.562Z,99.99
2018-12-02T05:26:52.481Z,99.99
2018-12-02T05:27:52.494Z,99.99
2018-12-02T05:29:45.670Z,99.99
2018-12-02T05:30:45.428Z,99.99
2018-12-02T05:32:38.372Z,99.99
2018-12-02T05:33:38.359Z,99.99
2018-12-02T05:35:31.580Z,99.99
2018-12-02T05:36:31.286Z,99.99
2018-12-02T05:38:24.207Z,99.99
2018-12-02T05:39:24.219Z,99.99
2018-12-02T05:41:17.402Z,99.99
2018-12-02T05:42:17.152Z,99.99
2018-12-02T05:44:10.079Z,99.99
2018-12-02T05:45:10.094Z,99.99
2018-12-02T05:47:06.191Z,99.99
2018-12-02T05:48:03.023Z,99.99
2018-12-02T05:49:56.489Z,99.99
2018-12-02T05:50:55.955Z,99.99
2018-12-02T05:52:49.036Z,99.99
2018-12-02T05:53:48.884Z,99.99
2018-12-02T05:55:41.815Z,99.99
2018-12-02T05:56:41.822Z,99.99
2018-12-02T05:58:35.210Z,99.99
2018-12-02T05:59:34.961Z,99.99
2018-12-02T06:01:27.879Z,99.99
2018-12-02T06:02:27.896Z,99.99
2018-12-02T06:04:21.124Z,99.99
2018-12-02T06:05:20.834Z,99.99
2018-12-02T06:07:13.783Z,99.99
2018-12-02T06:08:13.766Z,99.99
2018-12-02T06:10:06.948Z,99.99
2018-12-02T06:11:06.694Z,99.99
2018-12-02T06:12:59.691Z,99.99
2018-12-02T06:13:59.634Z,99.99
2018-12-02T06:15:52.727Z,99.99
2018-12-02T06:16:52.581Z,99.99
2018-12-02T06:18:45.498Z,99.99
2018-12-02T06:19:45.507Z,99.99
2018-12-02T06:21:38.703Z,99.99
2018-12-02T06:22:38.442Z,99.99
2018-12-02T06:24:31.429Z,99.99
2018-12-02T06:25:31.381Z,99.99
2018-12-02T06:27:24.470Z,99.99
2018-12-02T06:28:24.309Z,99.99
2018-12-02T06:30:17.232Z,99.99
2018-12-02T06:31:17.243Z,99.99
2018-12-02T06:33:10.428Z,99.99
2018-12-02T06:34:10.183Z,99.99
2018-12-02T06:36:03.097Z,99.99
2018-12-02T06:37:03.108Z,99.99
2018-12-02T06:39:10.677Z,99.99
2018-12-02T06:39:56.047Z,99.99
2018-12-02T06:41:48.962Z,99.99
2018-12-02T06:42:48.977Z,99.99
2018-12-02T06:44:42.158Z,99.99
2018-12-02T06:45:41.913Z,99.99
2018-12-02T06:47:35.387Z,99.99
2018-12-02T06:48:34.847Z,99.99
2018-12-02T06:50:27.943Z,99.99
2018-12-02T06:51:27.793Z,99.99
2018-12-02T06:53:20.706Z,99.99
2018-12-02T06:54:20.718Z,99.99
2018-12-02T06:56:13.718Z,99.99
2018-12-02T06:57:13.651Z,99.99
2018-12-02T06:59:06.577Z,99.99
2018-12-02T07:00:06.588Z,99.99
2018-12-02T07:02:10.336Z,99.99
2018-12-02T07:02:59.532Z,99.99
2018-12-02T07:04:52.452Z,99.99
2018-12-02T07:05:52.466Z,99.99
2018-12-02T07:07:45.561Z,99.99
2018-12-02T07:08:45.423Z,99.99
2018-12-02T07:10:38.318Z,99.99
2018-12-02T07:11:38.334Z,99.99
2018-12-02T07:13:31.434Z,99.99
2018-12-02T07:14:31.278Z,99.99
2018-12-02T07:16:24.763Z,99.99
2018-12-02T07:17:24.211Z,99.99
2018-12-02T07:19:17.390Z,99.99
2018-12-02T07:20:17.145Z,99.99
2018-12-02T07:22:10.071Z,99.99
2018-12-02T07:23:10.087Z,99.99
2018-12-02T07:25:03.552Z,99.99
2018-12-02T07:26:03.210Z,99.99
2018-12-02T07:27:56.148Z,99.99
2018-12-02T07:28:56.158Z,99.99
2018-12-02T07:30:49.240Z,99.99
2018-12-02T07:31:49.097Z,99.99
2018-12-02T07:33:42.019Z,99.99
2018-12-02T07:34:42.025Z,99.99
2018-12-02T07:36:35.211Z,99.99
2018-12-02T07:37:34.960Z,99.99
2018-12-02T07:39:27.879Z,99.99
2018-12-02T07:40:27.894Z,99.99
2018-12-02T07:42:21.010Z,99.99
2018-12-02T07:43:20.826Z,99.99
2018-12-02T07:45:13.746Z,99.99
2018-12-02T07:46:13.762Z,99.99
2018-12-02T07:48:06.972Z,99.99
2018-12-02T07:49:06.692Z,99.99
2018-12-02T07:50:59.616Z,99.99
2018-12-02T07:51:59.638Z,99.99
2018-12-02T07:53:52.814Z,99.99
2018-12-02T07:54:52.566Z,99.99
2018-12-02T07:56:45.481Z,99.99
2018-12-02T07:57:45.493Z,99.99
2018-12-02T07:59:38.676Z,99.99
2018-12-02T08:00:38.428Z,99.99
2018-12-02T08:02:31.346Z,99.99
2018-12-02T08:03:31.365Z,99.99
2018-12-02T08:05:24.589Z,99.99
2018-12-02T08:06:24.299Z,99.99
2018-12-02T08:08:17.219Z,99.99
2018-12-02T08:09:17.227Z,99.99
2018-12-02T08:11:10.236Z,99.99
2018-12-02T08:12:10.168Z,99.99
2018-12-02T08:14:03.101Z,99.99
2018-12-02T08:15:03.104Z,99.99
2018-12-02T08:16:56.346Z,99.99
2018-12-02T08:17:56.033Z,99.99
2018-12-02T08:19:48.956Z,99.99
2018-12-02T08:20:48.965Z,99.99
2018-12-02T08:22:42.062Z,99.99
2018-12-02T08:23:41.898Z,99.99
2018-12-02T08:25:34.817Z,99.99
2018-12-02T08:26:34.831Z,99.99
2018-12-02T08:28:28.018Z,99.99
2018-12-02T08:29:27.763Z,99.99
2018-12-02T08:31:20.724Z,99.99
2018-12-02T08:32:20.697Z,99.99
2018-12-02T08:34:40.948Z,99.99
2018-12-02T08:35:13.636Z,99.99
2018-12-02T08:37:06.561Z,99.99
2018-12-02T08:38:06.572Z,99.99
2018-12-02T08:39:59.664Z,99.99
2018-12-02T08:40:59.523Z,99.99
2018-12-02T08:42:53.016Z,99.99
2018-12-02T08:43:52.454Z,99.99
2018-12-02T08:45:46.416Z,99.99
2018-12-02T08:46:45.384Z,99.99
2018-12-02T08:48:38.302Z,99.99
2018-12-02T08:49:38.313Z,99.99
2018-12-02T08:51:31.403Z,99.99
2018-12-02T08:52:31.252Z,99.99
2018-12-02T08:54:24.185Z,99.99
2018-12-02T08:55:24.198Z,99.99
2018-12-02T08:57:28.455Z,99.99
2018-12-02T08:58:17.145Z,99.99
2018-12-02T09:00:10.065Z,99.99
2018-12-02T09:01:10.079Z,99.99
2018-12-02T09:03:03.165Z,99.99
2018-12-02T09:04:03.011Z,99.99
2018-12-02T09:05:55.926Z,99.99
2018-12-02T09:06:55.944Z,99.99
2018-12-02T09:09:10.042Z,99.99
2018-12-02T09:09:48.877Z,99.99
2018-12-02T09:11:41.797Z,99.99
2018-12-02T09:12:41.808Z,99.99
2018-12-02T09:14:35.002Z,99.99
2018-12-02T09:15:34.749Z,99.99
2018-12-02T09:17:27.667Z,99.99
2018-12-02T09:18:27.696Z,99.99
2018-12-02T09:20:20.863Z,99.99
2018-12-02T09:21:20.613Z,99.99
2018-12-02T09:23:13.532Z,99.99
2018-12-02T09:24:13.550Z,99.99
2018-12-02T09:26:06.563Z,99.99
2018-12-02T09:27:06.492Z,99.99
2018-12-02T09:28:59.424Z,99.99
2018-12-02T09:29:59.438Z,99.99
2018-12-02T09:31:52.675Z,99.99
2018-12-02T09:32:52.384Z,99.99
2018-12-02T09:34:45.314Z,99.99
2018-12-02T09:35:45.317Z,99.99
2018-12-02T09:37:38.319Z,99.99
2018-12-02T09:38:38.249Z,99.99
2018-12-02T09:40:31.166Z,99.99
2018-12-02T09:41:31.187Z,99.99
2018-12-02T09:43:34.745Z,99.99
2018-12-02T09:44:24.114Z,99.99
2018-12-02T09:46:17.040Z,99.99
2018-12-02T09:47:17.050Z,99.99
2018-12-02T09:49:10.229Z,99.99
2018-12-02T09:50:10.048Z,99.99
2018-12-02T09:52:02.905Z,99.99
2018-12-02T09:53:02.923Z,99.99
2018-12-02T09:54:56.891Z,99.99
2018-12-02T09:55:55.854Z,99.99
2018-12-02T09:57:48.769Z,99.99
2018-12-02T09:58:48.786Z,99.99
2018-12-02T10:00:41.966Z,99.99
2018-12-02T10:01:41.715Z,99.99
2018-12-02T10:03:34.632Z,99.99
2018-12-02T10:04:34.651Z,99.99
2018-12-02T10:06:27.822Z,99.99
2018-12-02T10:07:27.582Z,99.99
2018-12-02T10:09:20.496Z,99.99
2018-12-02T10:10:22.843Z,99.99
2018-12-02T10:12:13.617Z,99.99
2018-12-02T10:13:13.444Z,99.99
2018-12-02T10:15:06.913Z,99.99
2018-12-02T10:16:06.376Z,99.99
2018-12-02T10:17:59.470Z,99.99
2018-12-02T10:18:59.318Z,99.99
2018-12-02T10:20:52.785Z,99.99
2018-12-02T10:21:52.249Z,99.99
2018-12-02T10:23:45.437Z,99.99
2018-12-02T10:24:45.191Z,99.99
2018-12-02T10:26:38.147Z,99.99
2018-12-02T10:27:38.163Z,99.99
2018-12-02T10:29:31.344Z,99.99
2018-12-02T10:30:31.099Z,99.99
2018-12-02T10:32:24.024Z,99.99
2018-12-02T10:33:24.040Z,99.99
2018-12-02T10:35:17.118Z,99.99
2018-12-02T10:36:16.968Z,99.99
2018-12-02T10:38:09.889Z,99.99
2018-12-02T10:39:09.904Z,99.99
2018-12-02T10:41:02.996Z,99.99
2018-12-02T10:42:02.854Z,99.99
2018-12-02T10:43:56.303Z,99.99
2018-12-02T10:44:55.768Z,99.99
2018-12-02T10:46:48.870Z,99.99
2018-12-02T10:47:48.699Z,99.99
2018-12-02T10:49:42.187Z,99.99
2018-12-02T10:50:41.633Z,99.99
2018-12-02T10:52:53.288Z,99.99
2018-12-02T10:53:34.568Z,99.99
2018-12-02T10:55:27.489Z,99.99
2018-12-02T10:56:27.513Z,99.99
2018-12-02T10:58:20.594Z,99.99
2018-12-02T10:59:20.434Z,99.99
2018-12-02T11:01:13.366Z,99.99
2018-12-02T11:02:13.365Z,99.99
2018-12-02T11:04:06.575Z,99.99
2018-12-02T11:05:06.315Z,99.99
2018-12-02T11:06:59.240Z,99.99
2018-12-02T11:07:59.254Z,99.99
2018-12-02T11:09:52.433Z,99.99
2018-12-02T11:10:52.187Z,99.99
2018-12-02T11:12:45.105Z,99.99
2018-12-02T11:13:45.120Z,99.99
2018-12-02T11:15:38.117Z,99.99
2018-12-02T11:16:38.057Z,99.99
2018-12-02T11:18:30.968Z,99.99
2018-12-02T11:19:30.980Z,99.99
2018-12-02T11:21:24.353Z,99.99
2018-12-02T11:22:24.108Z,99.99
2018-12-02T11:24:17.030Z,99.99
2018-12-02T11:25:17.043Z,99.99
2018-12-02T11:27:10.233Z,99.99
2018-12-02T11:28:09.978Z,99.99
2018-12-02T11:30:03.440Z,99.99
2018-12-02T11:31:02.905Z,99.99
2018-12-02T11:32:56.096Z,99.99
2018-12-02T11:33:55.837Z,99.99
2018-12-02T11:35:48.757Z,99.99
2018-12-02T11:36:48.764Z,99.99
2018-12-02T11:38:41.856Z,99.99
2018-12-02T11:39:41.695Z,99.99
2018-12-02T11:41:34.621Z,99.99
2018-12-02T11:42:34.632Z,99.99
2018-12-02T11:44:27.824Z,99.99
2018-12-02T11:45:27.563Z,99.99
2018-12-02T11:47:20.482Z,99.99
2018-12-02T11:48:20.495Z,99.99
2018-12-02T11:50:21.739Z,99.99
2018-12-02T11:51:13.425Z,99.99
2018-12-02T11:53:06.345Z,99.99
2018-12-02T11:54:06.354Z,99.99
2018-12-02T11:55:59.535Z,99.99
2018-12-02T11:56:59.286Z,99.99
2018-12-02T11:58:52.202Z,99.99
2018-12-02T11:59:52.219Z,99.99
2018-12-02T12:01:45.217Z,99.99
2018-12-02T12:02:45.147Z,99.99
2018-12-02T12:04:38.066Z,99.99
2018-12-02T12:05:38.077Z,99.99
2018-12-02T12:07:31.251Z,99.99
2018-12-02T12:08:31.505Z,99.99
2018-12-02T12:10:23.928Z,99.99
2018-12-02T12:11:23.939Z,99.99
2018-12-02T12:13:17.130Z,99.99
2018-12-02T12:14:16.884Z,99.99
2018-12-02T12:16:09.803Z,99.99
2018-12-02T12:17:09.821Z,99.99
2018-12-02T12:19:02.813Z,99.99
2018-12-02T12:20:02.749Z,99.99
2018-12-02T12:21:55.677Z,99.99
2018-12-02T12:22:55.686Z,99.99
2018-12-02T12:24:56.339Z,99.99
2018-12-02T12:25:48.617Z,99.99
2018-12-02T12:27:41.536Z,99.99
2018-12-02T12:28:41.547Z,99.99
2018-12-02T12:30:34.540Z,99.99
2018-12-02T12:31:34.477Z,99.99
2018-12-02T12:33:27.429Z,99.99
2018-12-02T12:34:27.414Z,99.99
2018-12-02T12:36:20.598Z,99.99
2018-12-02T12:37:20.345Z,99.99
2018-12-02T12:39:13.274Z,99.99
2018-12-02T12:40:13.283Z,99.99
2018-12-02T12:42:06.461Z,99.99
2018-12-02T12:43:06.219Z,99.99
2018-12-02T12:44:59.140Z,99.99
2018-12-02T12:45:59.156Z,99.99
2018-12-02T12:47:52.235Z,99.99
2018-12-02T12:48:52.082Z,99.99
2018-12-02T12:50:44.999Z,99.99
2018-12-02T12:51:45.011Z,99.99
2018-12-02T12:53:38.197Z,99.99
2018-12-02T12:54:37.951Z,99.99
2018-12-02T12:56:30.863Z,99.99
2018-12-02T12:57:30.880Z,99.99
2018-12-02T12:59:24.055Z,99.99
2018-12-02T13:00:23.812Z,99.99
2018-12-02T13:02:16.727Z,99.99
2018-12-02T13:03:16.741Z,99.99
2018-12-02T13:05:09.827Z,99.99
2018-12-02T13:06:09.674Z,99.99
2018-12-02T13:08:02.590Z,99.99
2018-12-02T13:09:02.605Z,99.99
2018-12-02T13:10:55.823Z,99.99
2018-12-02T13:11:55.575Z,99.99
2018-12-02T13:13:48.498Z,99.99
2018-12-02T13:14:48.511Z,99.99
2018-12-02T13:16:41.505Z,99.99
2018-12-02T13:17:41.446Z,99.99
2018-12-02T13:19:34.361Z,99.99
2018-12-02T13:20:34.371Z,99.99
2018-12-02T13:22:27.532Z,99.99
2018-12-02T13:23:27.379Z,99.99
2018-12-02T13:25:20.293Z,99.99
2018-12-02T13:26:20.309Z,99.99
2018-12-02T13:28:13.405Z,99.99
2018-12-02T13:29:13.249Z,99.99
2018-12-02T13:31:06.160Z,99.99
2018-12-02T13:32:06.174Z,99.99
2018-12-02T13:33:59.394Z,99.99
2018-12-02T13:34:59.111Z,99.99
2018-12-02T13:36:52.575Z,99.99
2018-12-02T13:37:52.038Z,99.99
2018-12-02T13:39:45.231Z,99.99
2018-12-02T13:40:44.971Z,99.99
2018-12-02T13:42:37.881Z,99.99
2018-12-02T13:43:37.895Z,99.99
2018-12-02T13:45:31.208Z,99.99
2018-12-02T13:46:30.838Z,99.99
2018-12-02T13:48:23.741Z,99.99
2018-12-02T13:49:23.758Z,99.99
2018-12-02T13:51:31.560Z,99.99
2018-12-02T13:52:16.685Z,99.99
2018-12-02T13:54:09.613Z,99.99
2018-12-02T13:55:09.621Z,99.99
2018-12-02T13:57:02.726Z,99.99
2018-12-02T13:58:02.550Z,99.99
2018-12-02T13:59:55.471Z,99.99
2018-12-02T14:00:55.477Z,99.99
2018-12-02T14:02:50.095Z,99.99
2018-12-02T14:03:48.410Z,99.99
2018-12-02T14:05:41.320Z,99.99
2018-12-02T14:06:41.335Z,99.99
2018-12-02T14:08:34.334Z,99.99
2018-12-02T14:09:34.266Z,99.99
2018-12-02T14:11:27.184Z,99.37
2018-12-02T14:12:27.198Z,98.29
2018-12-02T14:14:20.378Z,98.29
2018-12-02T14:15:20.129Z,97.22
2018-12-02T14:17:13.050Z,98.00
2018-12-02T14:18:13.061Z,98.39
2018-12-02T14:20:06.199Z,97.27
2018-12-02T14:21:05.989Z,97.66
2018-12-02T14:22:58.908Z,97.27
2018-12-02T14:23:58.920Z,97.56
2018-12-02T14:25:52.102Z,97.52
2018-12-02T14:26:51.858Z,96.89
2018-12-02T14:28:44.770Z,97.08
2018-12-02T14:29:44.784Z,97.81
2018-12-02T14:31:38.749Z,95.62
2018-12-02T14:32:37.715Z,96.01
2018-12-02T14:34:31.197Z,94.84
2018-12-02T14:35:30.646Z,94.84
2018-12-02T14:37:37.300Z,94.46
2018-12-02T14:38:23.577Z,94.74
2018-12-02T14:40:16.489Z,94.65
2018-12-02T14:41:16.507Z,95.23
2018-12-02T14:43:09.682Z,95.91
2018-12-02T14:44:09.432Z,95.53
2018-12-02T14:46:02.355Z,94.74
2018-12-02T14:47:02.366Z,94.84
2018-12-02T14:48:55.542Z,95.04
2018-12-02T14:49:55.294Z,95.23
2018-12-02T14:51:48.212Z,94.36
2018-12-02T14:52:48.223Z,94.46
2018-12-02T14:54:41.329Z,95.14
2018-12-02T14:55:41.158Z,95.33
2018-12-02T14:57:34.081Z,95.72
2018-12-02T14:58:34.095Z,94.94
2018-12-02T15:00:27.282Z,95.23
2018-12-02T15:01:27.022Z,94.65
2018-12-02T15:03:19.937Z,94.94
2018-12-02T15:04:19.950Z,94.46
2018-12-02T15:06:12.957Z,95.33
2018-12-02T15:07:12.878Z,95.91
2018-12-02T15:09:05.793Z,94.65
2018-12-02T15:10:05.807Z,94.41
2018-12-02T15:11:58.836Z,94.36
2018-12-02T15:12:58.732Z,94.41
2018-12-02T15:14:51.655Z,94.31
2018-12-02T15:15:51.670Z,93.44
2018-12-02T15:18:08.884Z,92.76
2018-12-02T15:18:44.598Z,92.71
2018-12-02T15:20:37.521Z,93.24
2018-12-02T15:21:37.531Z,93.00
2018-12-02T15:23:30.523Z,92.47
2018-12-02T15:24:30.456Z,91.83
2018-12-02T15:26:23.373Z,92.47
2018-12-02T15:27:23.382Z,92.37
2018-12-02T15:29:16.555Z,92.41
2018-12-02T15:30:16.312Z,91.59
2018-12-02T15:32:09.229Z,92.66
2018-12-02T15:33:09.241Z,92.41
2018-12-02T15:35:02.337Z,93.05
2018-12-02T15:36:02.173Z,93.15
2018-12-02T15:37:55.084Z,92.90
2018-12-02T15:38:55.099Z,92.37
2018-12-02T15:40:48.284Z,92.37
2018-12-02T15:41:48.024Z,93.34
2018-12-02T15:43:40.942Z,93.44
2018-12-02T15:44:40.955Z,93.19
2018-12-02T15:46:34.168Z,92.37
2018-12-02T15:47:33.886Z,92.47
2018-12-02T15:49:27.368Z,92.51
2018-12-02T15:50:26.815Z,92.47
2018-12-02T15:52:27.198Z,92.95
2018-12-02T15:53:19.744Z,92.95
2018-12-02T15:55:12.668Z,93.54
2018-12-02T15:56:12.667Z,93.63
2018-12-02T15:58:05.848Z,93.63
2018-12-02T15:59:05.602Z,92.85
2018-12-02T16:00:58.540Z,92.95
2018-12-02T16:01:58.523Z,92.76
2018-12-02T16:03:51.705Z,93.92
2018-12-02T16:04:51.453Z,94.02
2018-12-02T16:06:44.919Z,93.92
2018-12-02T16:07:44.378Z,93.15
2018-12-02T16:09:52.034Z,92.76
2018-12-02T16:10:37.308Z,91.69
2018-12-02T16:12:30.222Z,91.59
2018-12-02T16:13:30.235Z,91.50
2018-12-02T16:15:23.329Z,91.69
2018-12-02T16:16:23.175Z,92.37
2018-12-02T16:18:16.102Z,93.05
2018-12-02T16:19:16.102Z,92.76
2018-12-02T16:21:09.117Z,93.44
2018-12-02T16:22:09.039Z,93.63
2018-12-02T16:24:02.006Z,93.92
2018-12-02T16:25:01.969Z,93.54
2018-12-02T16:26:55.054Z,94.21
2018-12-02T16:27:54.905Z,92.85
2018-12-02T16:29:47.816Z,92.08
2018-12-02T16:30:47.828Z,92.37
2018-12-02T16:32:40.950Z,93.34
2018-12-02T16:33:40.763Z,93.44
2018-12-02T16:35:33.676Z,93.92
2018-12-02T16:36:33.688Z,92.95
2018-12-02T16:38:27.695Z,92.27
2018-12-02T16:39:26.616Z,92.47
2018-12-02T16:41:19.530Z,91.88
2018-12-02T16:42:19.546Z,92.37
2018-12-02T16:44:13.508Z,92.95
2018-12-02T16:45:12.475Z,93.15
2018-12-02T16:47:05.615Z,92.76
2018-12-02T16:48:05.594Z,92.18
2018-12-02T16:49:58.584Z,93.15
2018-12-02T16:50:58.524Z,93.05
2018-12-02T16:52:51.449Z,92.27
2018-12-02T16:53:51.463Z,92.57
2018-12-02T16:55:44.451Z,91.50
2018-12-02T16:56:44.388Z,91.20
2018-12-02T16:58:37.305Z,91.69
2018-12-02T16:59:37.317Z,91.11
2018-12-02T17:01:30.490Z,90.62
2018-12-02T17:02:30.244Z,90.62
2018-12-02T17:04:23.162Z,89.80
2018-12-02T17:05:23.173Z,89.12
2018-12-02T17:07:26.938Z,90.23
2018-12-02T17:08:16.100Z,89.55
2018-12-02T17:10:09.053Z,89.26
2018-12-02T17:11:09.028Z,89.84
2018-12-02T17:13:02.204Z,90.62
2018-12-02T17:14:01.954Z,90.28
2018-12-02T17:15:54.873Z,90.42
2018-12-02T17:16:54.884Z,90.42
2018-12-02T17:18:48.628Z,90.33
2018-12-02T17:19:47.816Z,90.52
2018-12-02T17:21:40.728Z,89.94
2018-12-02T17:22:40.739Z,89.03
2018-12-02T17:24:33.821Z,88.78
2018-12-02T17:25:33.666Z,88.44
2018-12-02T17:27:26.630Z,86.40
2018-12-02T17:28:28.974Z,86.21
2018-12-02T17:30:19.596Z,84.94
2018-12-02T17:31:19.526Z,85.14
2018-12-02T17:33:12.446Z,83.59
2018-12-02T17:34:12.457Z,83.10
2018-12-02T17:36:05.533Z,82.71
2018-12-02T17:37:05.382Z,83.39
2018-12-02T17:38:58.297Z,82.71
2018-12-02T17:39:58.312Z,82.52
2018-12-02T17:41:51.388Z,83.20
2018-12-02T17:42:51.242Z,83.39
2018-12-02T17:44:44.703Z,83.10
2018-12-02T17:45:44.169Z,82.52
2018-12-02T17:47:37.256Z,82.23
2018-12-02T17:48:37.091Z,81.93
2018-12-02T17:50:30.010Z,82.03
2018-12-02T17:51:30.018Z,81.55
2018-12-02T17:53:23.178Z,81.74
2018-12-02T17:54:23.055Z,81.26
2018-12-02T17:56:16.505Z,81.16
2018-12-02T17:57:15.966Z,81.16
2018-12-02T17:59:14.223Z,81.74
2018-12-02T18:00:08.896Z,80.77
2018-12-02T18:02:01.808Z,80.09
2018-12-02T18:03:01.822Z,79.99
2018-12-02T18:04:54.987Z,80.48
2018-12-02T18:05:54.749Z,80.77
2018-12-02T18:07:47.662Z,79.80
2018-12-02T18:08:47.674Z,80.09
2018-12-02T18:10:40.756Z,78.92
2018-12-02T18:11:40.600Z,79.32
2018-12-02T18:13:33.514Z,80.29
2018-12-02T18:14:33.616Z,79.99
2018-12-02T18:16:26.517Z,79.32
2018-12-02T18:17:26.454Z,79.32
2018-12-02T18:19:19.569Z,78.44
2018-12-02T18:20:19.580Z,78.73
2018-12-02T18:22:12.640Z,78.73
2018-12-02T18:23:12.509Z,79.32
2018-12-02T18:25:05.420Z,79.61
2018-12-02T18:26:05.435Z,77.67
2018-12-02T18:27:58.608Z,76.69
2018-12-02T18:28:58.361Z,77.28
2018-12-02T18:30:51.281Z,76.98
2018-12-02T18:31:51.292Z,76.89
2018-12-02T18:33:44.356Z,78.11